Observations for BENSON RAF, United Kingdom (EGUB)

EGUB 180450Z AUTO 22009KT 9999 // SCT019/// 14/12 Q1017 
EGUB 180350Z AUTO 22006KT 9999 // SCT015/// BKN020/// 14/12 Q1017   
EGUB 180250Z AUTO 24008KT 9999 // FEW010/// BKN021/// 14/12 Q1017   
EGUB 180150Z AUTO 25009KT 9999 // SCT005/// SCT010/// BKN019/// 15/14 Q1016 
EGUB 180050Z AUTO 21003KT 5000 // FEW003/// BKN007/// 15/15 Q1016   
EGUB 172350Z AUTO 20007KT 9999 // OVC006/// 15/15 Q1016 
EGUB 172250Z AUTO 19006KT 9999 // OVC006/// 15/14 Q1016 
EGUB 172150Z AUTO 18008KT 9999 // OVC005/// 15/14 Q1016 
EGUB 172050Z AUTO 18009KT 9999 // OVC005/// 15/14 Q1016 
EGUB 171950Z AUTO 18009KT 9999 // BKN007/// 15/13 Q1015 
EGUB 171850Z AUTO 18012KT 9999 // FEW014/// OVC026/// 15/13 Q1016   
EGUB 171750Z AUTO 19012KT 9999 // BKN014/// BKN031/// 16/13 Q1015   
EGUB 171650Z AUTO 19013KT 9999 // OVC015/// 16/12 Q1015 
EGUB 171550Z AUTO 21014G24KT 9999 // BKN019/// 17/12 Q1015  
EGUB 171450Z AUTO 21013KT 9999 // BKN020/// 17/12 Q1016 
EGUB 171350Z AUTO 20013KT 9999 // OVC026/// 16/10 Q1016 
EGUB 171250Z AUTO 22011KT 9999 // BKN029/// 17/09 Q1016 
EGUB 171150Z AUTO 22012KT 9999 // BKN030/// BKN070/// 17/09 Q1016   
EGUB 171050Z AUTO 22010KT 9999 // FEW025/// BKN029/// BKN080/// 17/10 Q1016 
EGUB 170950Z AUTO 22011KT 9999 // FEW021/// BKN029/// BKN060/// 16/10 Q1016 
EGUB 170850Z AUTO 22010KT 9999 // SCT020/// BKN060/// 15/10 Q1016   
EGUB 170750Z AUTO 22009KT 9999 // BKN012/// BKN019/// BKN080/// 14/11 Q1016 
EGUB 170650Z AUTO 22007KT 9999 // BKN060/// 13/11 Q1016 
EGUB 170550Z AUTO 21008KT 9999 // OVC060/// 12/11 Q1015 
EGUB 170450Z AUTO 21008KT 9999 // OVC080/// 13/10 Q1015